Current | Forecast
Updated: 4:00 PM MSK on February 20, 2018
Observed at Mineral'Nye Vody, Russia
Temperature 36°F
Windchill 30°F
Humidity 93%
Dew Point 34°F
Wind East at 7 mph
Pressure 30.09 in (Steady)
Conditions Light Rain
Visibility 6.2 miles
UV 0 out of 16
Clouds Mostly Cloudy (BKN) : 700 ft
Overcast (OVC) : 3900 ft
Yesterday's Maximum 41°F
Yesterday's Minimum 34°F approx.
Yesterday's Heating Degree Days 28 approx.
Sunrise6:59 AM MSK
Sunset5:43 PM MSK
Moon Rise9:22 AM MSK
Moon Set10:29 PM MSK
Moon PhaseMoon Phase
Waxing Crescent
Raw METARMETAR URMM 201300Z 09003MPS 9999 -RA BKN007 OVC039 02/01 Q1019 R12/290250 NOSIG RMK MT OBSC QFE736/0982


Monday
. High: 71° F.
Tuesday
. High: 68° F.
Wednesday
. High: 60° F.
Thursday
. High: 64° F.
Friday
. High: 62° F.
Saturday
. High: 64° F.
Sunday
. High: 60° F.
Monday
. High: 66° F.

Units: English | Metric

Find the Weather for any City, State or Zipcode, or Country:

U.S. State List | Severe Weather | Tropical Storms | Ski Conditions
United States | Canada | Central America | South America | Asia | Europe | Australia | Africa | Islands

Weather Underground

© Copyright 2018
The Weather Company, LLC